Murray, KY

2:45 PM CDT on September 01, 2014 (GMT -0500)
Elmbrook | Change Station
CLOSE
Current Station
Personal Weather Station
Location: Murray, KY
Elevation: 538 ft
Nearby Weather Stations
Active Advisory: Lake Wind Advisory

Elev 538 ft 36.60 °N, 88.34 °W | Updated 4 minutes ago

Partly Cloudy
Partly Cloudy
84.9 °F
Feels Like 95 °F
N
6.0
Wind Variable Wind from SW
Gusts 10.0 mph

Today
High -- | Low -- °F
--% Chance of Precip.
Yesterday
High -- | Low -- °F
Precip. -- in
6:24 AM 7:21 PM
Waxing Crescent, 43% visible
Pressure 29.98 in
Visibility 10.0 miles
Clouds Clear
Heat Index 95 °F
Dew Point 77 °F
Humidity 77%
Rainfall 0.47 in
Snow Depth Not available.
UV 8 out of 12
Pollen 11.20 out of 12
Air Quality Not available.
Flu Activity Not available.
METAR KCEY 011935Z AUTO 23016G24KT 10SM CLR 30/22 A2998 RMK AO1

More Conditions Fewer Conditions

Pressure 29.98 in
Visibility 10.0 miles
Clouds Clear
Heat Index 95 °F
Dew Point 77 °F
Humidity 77%
Rainfall 0.47 in
Snow Depth Not available.
UV 8 out of 12
Pollen 11.20 out of 12
Air Quality Not available.
Flu Activity Not available.
METAR KCEY 011935Z AUTO 23016G24KT 10SM CLR 30/22 A2998 RMK AO1

More Conditions Fewer Conditions

10-Day Weather Forecast

Almanac

Astronomy

Sep. 01, 2014 Rise Set
Actual Time 6:24 AM CDT 7:21 PM CDT
Civil Twilight 5:57 AM CDT 7:47 PM CDT
Nautical Twilight 5:26 AM CDT 8:18 PM CDT
Astronomical Twilight 4:53 AM CDT 8:51 PM CDT
Moon 12:58 PM CDT 11:33 PM CDT
Length of Visible Light 13h 49m
Length of Day
12h 56m
Tomorrow will be 2m 15s shorter.
Waxing Crescent, 43% of the Moon is Illuminated
Today
Waxing Crescent
Sep 2
First Quarter
Sep 8
Full
Sep 15
Last Quarter
Sep 24
New

Today's Extremes

State Highs State Lows

Community

WunderPhotos

Upload Photos

1,749,387 photos uploaded!

WunderBlogs® & News

Nearby

Snow Depth

Station Depth Elevation
No new snow has been reported.

Earthquake Activity

City Distance Mag. Time & Date
Tiptonville, Tennessee 72 miles 2.9 11:19 PM CDT
2014-08-31
Minimum magnitude displayed is 2.5.

Coastal Water Temperatures

Place Temperature
No Stations Reporting

Nearby Weather Stations